sensor_id;sensor_type;location;lat;lon;timestamp;temperature;humidity
25871;DHT22;13689;48.590;7.752;2022-11-14T00:00:04;8.90;91.60
25871;DHT22;13689;48.590;7.752;2022-11-14T00:02:30;8.90;91.60
25871;DHT22;13689;48.590;7.752;2022-11-14T00:04:55;8.80;91.50
25871;DHT22;13689;48.590;7.752;2022-11-14T00:07:21;8.80;91.60
25871;DHT22;13689;48.590;7.752;2022-11-14T00:09:46;8.80;91.60
25871;DHT22;13689;48.590;7.752;2022-11-14T00:12:12;8.80;91.60
25871;DHT22;13689;48.590;7.752;2022-11-14T00:14:37;8.90;91.60
25871;DHT22;13689;48.590;7.752;2022-11-14T00:17:03;8.80;91.60
25871;DHT22;13689;48.590;7.752;2022-11-14T00:19:29;8.80;91.50
25871;DHT22;13689;48.590;7.752;2022-11-14T00:21:55;8.80;91.60
25871;DHT22;13689;48.590;7.752;2022-11-14T00:24:21;8.80;91.60
25871;DHT22;13689;48.590;7.752;2022-11-14T00:26:46;8.80;91.60
25871;DHT22;13689;48.590;7.752;2022-11-14T00:29:13;8.90;91.70
25871;DHT22;13689;48.590;7.752;2022-11-14T00:31:38;8.90;91.60
25871;DHT22;13689;48.590;7.752;2022-11-14T00:34:04;8.80;91.60
25871;DHT22;13689;48.590;7.752;2022-11-14T00:36:30;8.90;91.70
25871;DHT22;13689;48.590;7.752;2022-11-14T00:38:55;8.90;91.60
25871;DHT22;13689;48.590;7.752;2022-11-14T00:41:21;8.80;91.70
25871;DHT22;13689;48.590;7.752;2022-11-14T00:43:46;8.80;91.60
25871;DHT22;13689;48.590;7.752;2022-11-14T00:46:12;8.80;91.70
25871;DHT22;13689;48.590;7.752;2022-11-14T00:48:37;8.80;91.70
25871;DHT22;13689;48.590;7.752;2022-11-14T00:51:03;8.80;91.70
25871;DHT22;13689;48.590;7.752;2022-11-14T00:53:29;8.80;91.70
25871;DHT22;13689;48.590;7.752;2022-11-14T00:55:54;8.80;91.70
25871;DHT22;13689;48.590;7.752;2022-11-14T00:58:19;8.80;91.70
25871;DHT22;13689;48.590;7.752;2022-11-14T01:00:45;8.80;91.70
25871;DHT22;13689;48.590;7.752;2022-11-14T01:03:10;8.80;91.70
25871;DHT22;13689;48.590;7.752;2022-11-14T01:05:40;8.80;91.70
25871;DHT22;13689;48.590;7.752;2022-11-14T01:08:05;8.80;91.70
25871;DHT22;13689;48.590;7.752;2022-11-14T01:10:31;8.80;91.70
25871;DHT22;13689;48.590;7.752;2022-11-14T01:12:56;8.80;91.70
25871;DHT22;13689;48.590;7.752;2022-11-14T01:15:22;8.90;91.80
25871;DHT22;13689;48.590;7.752;2022-11-14T01:17:47;8.90;91.70
25871;DHT22;13689;48.590;7.752;2022-11-14T01:20:13;8.80;91.70
25871;DHT22;13689;48.590;7.752;2022-11-14T01:22:39;8.80;91.60
25871;DHT22;13689;48.590;7.752;2022-11-14T01:25:04;8.80;91.70
25871;DHT22;13689;48.590;7.752;2022-11-14T01:27:30;8.80;91.80
25871;DHT22;13689;48.590;7.752;2022-11-14T01:29:55;8.80;91.80
25871;DHT22;13689;48.590;7.752;2022-11-14T01:32:21;8.80;91.80
25871;DHT22;13689;48.590;7.752;2022-11-14T01:34:46;8.80;91.70
25871;DHT22;13689;48.590;7.752;2022-11-14T01:37:12;8.80;91.80
25871;DHT22;13689;48.590;7.752;2022-11-14T01:39:37;8.80;91.80
25871;DHT22;13689;48.590;7.752;2022-11-14T01:42:03;8.80;91.80
25871;DHT22;13689;48.590;7.752;2022-11-14T01:44:47;8.80;91.80
25871;DHT22;13689;48.590;7.752;2022-11-14T01:47:15;8.80;91.80
25871;DHT22;13689;48.590;7.752;2022-11-14T01:49:43;8.80;91.80
25871;DHT22;13689;48.590;7.752;2022-11-14T01:52:13;8.90;91.80
25871;DHT22;13689;48.590;7.752;2022-11-14T01:54:40;8.90;91.80
25871;DHT22;13689;48.590;7.752;2022-11-14T01:57:07;8.90;91.80
25871;DHT22;13689;48.590;7.752;2022-11-14T01:59:35;8.90;91.80
25871;DHT22;13689;48.590;7.752;2022-11-14T02:02:07;8.90;91.80
25871;DHT22;13689;48.590;7.752;2022-11-14T02:04:34;8.90;91.80
25871;DHT22;13689;48.590;7.752;2022-11-14T02:07:02;8.90;91.80
25871;DHT22;13689;48.590;7.752;2022-11-14T02:09:29;8.90;91.70
25871;DHT22;13689;48.590;7.752;2022-11-14T02:11:55;9.00;91.80
25871;DHT22;13689;48.590;7.752;2022-11-14T02:14:22;9.00;91.80
25871;DHT22;13689;48.590;7.752;2022-11-14T02:16:47;8.90;91.70
25871;DHT22;13689;48.590;7.752;2022-11-14T02:19:14;8.90;91.70
25871;DHT22;13689;48.590;7.752;2022-11-14T02:21:39;8.90;91.60
25871;DHT22;13689;48.590;7.752;2022-11-14T02:24:10;8.80;91.60
25871;DHT22;13689;48.590;7.752;2022-11-14T02:26:36;8.80;91.70
25871;DHT22;13689;48.590;7.752;2022-11-14T02:29:02;8.80;91.90
25871;DHT22;13689;48.590;7.752;2022-11-14T02:31:27;8.90;91.90
25871;DHT22;13689;48.590;7.752;2022-11-14T02:33:53;8.90;91.90
25871;DHT22;13689;48.590;7.752;2022-11-14T02:36:18;8.90;91.80
25871;DHT22;13689;48.590;7.752;2022-11-14T02:38:44;8.90;91.80
25871;DHT22;13689;48.590;7.752;2022-11-14T02:41:09;8.90;91.70
25871;DHT22;13689;48.590;7.752;2022-11-14T02:43:35;8.90;91.80
25871;DHT22;13689;48.590;7.752;2022-11-14T02:46:00;8.90;91.80
25871;DHT22;13689;48.590;7.752;2022-11-14T02:48:26;8.80;91.70
25871;DHT22;13689;48.590;7.752;2022-11-14T02:50:51;8.80;91.80
25871;DHT22;13689;48.590;7.752;2022-11-14T02:53:17;8.90;91.90
25871;DHT22;13689;48.590;7.752;2022-11-14T02:55:42;8.80;91.90
25871;DHT22;13689;48.590;7.752;2022-11-14T02:58:08;8.90;91.80
25871;DHT22;13689;48.590;7.752;2022-11-14T03:00:33;8.80;91.80
25871;DHT22;13689;48.590;7.752;2022-11-14T03:02:59;8.80;91.80
25871;DHT22;13689;48.590;7.752;2022-11-14T03:05:24;8.80;91.90
25871;DHT22;13689;48.590;7.752;2022-11-14T03:07:53;8.80;91.80
25871;DHT22;13689;48.590;7.752;2022-11-14T03:10:20;8.70;91.80
25871;DHT22;13689;48.590;7.752;2022-11-14T03:12:45;8.70;91.90
25871;DHT22;13689;48.590;7.752;2022-11-14T03:15:11;8.70;91.90
25871;DHT22;13689;48.590;7.752;2022-11-14T03:17:37;8.70;92.00
25871;DHT22;13689;48.590;7.752;2022-11-14T03:20:02;8.70;91.90
25871;DHT22;13689;48.590;7.752;2022-11-14T03:22:28;8.70;91.80
25871;DHT22;13689;48.590;7.752;2022-11-14T03:24:53;8.70;91.90
25871;DHT22;13689;48.590;7.752;2022-11-14T03:27:19;8.70;91.90
25871;DHT22;13689;48.590;7.752;2022-11-14T03:29:46;8.70;92.00
25871;DHT22;13689;48.590;7.752;2022-11-14T03:32:11;8.70;91.90
25871;DHT22;13689;48.590;7.752;2022-11-14T03:34:37;8.60;91.90
25871;DHT22;13689;48.590;7.752;2022-11-14T03:37:02;8.60;92.00
25871;DHT22;13689;48.590;7.752;2022-11-14T03:39:28;8.60;91.90
25871;DHT22;13689;48.590;7.752;2022-11-14T03:41:53;8.60;92.00
25871;DHT22;13689;48.590;7.752;2022-11-14T03:44:19;8.60;92.10
25871;DHT22;13689;48.590;7.752;2022-11-14T03:46:44;8.60;92.00
25871;DHT22;13689;48.590;7.752;2022-11-14T03:49:10;8.50;91.80
25871;DHT22;13689;48.590;7.752;2022-11-14T03:51:35;8.40;91.90
25871;DHT22;13689;48.590;7.752;2022-11-14T03:54:01;8.40;92.00
25871;DHT22;13689;48.590;7.752;2022-11-14T03:56:26;8.40;92.10
25871;DHT22;13689;48.590;7.752;2022-11-14T03:58:52;8.30;92.10
25871;DHT22;13689;48.590;7.752;2022-11-14T04:01:17;8.30;92.10
25871;DHT22;13689;48.590;7.752;2022-11-14T04:03:43;8.30;92.30
25871;DHT22;13689;48.590;7.752;2022-11-14T04:06:08;8.40;92.40
25871;DHT22;13689;48.590;7.752;2022-11-14T04:08:34;8.40;92.30
25871;DHT22;13689;48.590;7.752;2022-11-14T04:10:59;8.40;92.30
25871;DHT22;13689;48.590;7.752;2022-11-14T04:13:25;8.40;92.10
25871;DHT22;13689;48.590;7.752;2022-11-14T04:15:54;8.30;92.20
25871;DHT22;13689;48.590;7.752;2022-11-14T04:18:20;8.30;92.30
25871;DHT22;13689;48.590;7.752;2022-11-14T04:20:46;8.40;92.30
25871;DHT22;13689;48.590;7.752;2022-11-14T04:23:11;8.40;92.40
25871;DHT22;13689;48.590;7.752;2022-11-14T04:25:36;8.40;92.20
25871;DHT22;13689;48.590;7.752;2022-11-14T04:28:02;8.40;92.30
25871;DHT22;13689;48.590;7.752;2022-11-14T04:30:27;8.40;92.40
25871;DHT22;13689;48.590;7.752;2022-11-14T04:32:53;8.40;92.40
25871;DHT22;13689;48.590;7.752;2022-11-14T04:35:18;8.40;92.30
25871;DHT22;13689;48.590;7.752;2022-11-14T04:37:44;8.30;92.20
25871;DHT22;13689;48.590;7.752;2022-11-14T04:40:10;8.40;92.50
25871;DHT22;13689;48.590;7.752;2022-11-14T04:42:35;8.40;92.50
25871;DHT22;13689;48.590;7.752;2022-11-14T04:45:01;8.40;92.50
25871;DHT22;13689;48.590;7.752;2022-11-14T04:47:27;8.50;92.40
25871;DHT22;13689;48.590;7.752;2022-11-14T04:49:52;8.40;92.40
25871;DHT22;13689;48.590;7.752;2022-11-14T04:52:17;8.40;92.30
25871;DHT22;13689;48.590;7.752;2022-11-14T04:54:43;8.40;92.40
25871;DHT22;13689;48.590;7.752;2022-11-14T04:57:08;8.50;92.40
25871;DHT22;13689;48.590;7.752;2022-11-14T04:59:34;8.50;92.40
25871;DHT22;13689;48.590;7.752;2022-11-14T05:02:00;8.50;92.40
25871;DHT22;13689;48.590;7.752;2022-11-14T05:04:25;8.50;92.30
25871;DHT22;13689;48.590;7.752;2022-11-14T05:06:51;8.50;92.30
25871;DHT22;13689;48.590;7.752;2022-11-14T05:09:16;8.50;92.40
25871;DHT22;13689;48.590;7.752;2022-11-14T05:11:42;8.50;92.40
25871;DHT22;13689;48.590;7.752;2022-11-14T05:14:07;8.50;92.40
25871;DHT22;13689;48.590;7.752;2022-11-14T05:16:32;8.50;92.40
25871;DHT22;13689;48.590;7.752;2022-11-14T05:18:58;8.50;92.40
25871;DHT22;13689;48.590;7.752;2022-11-14T05:21:24;8.50;92.30
25871;DHT22;13689;48.590;7.752;2022-11-14T05:23:49;8.50;92.40
25871;DHT22;13689;48.590;7.752;2022-11-14T05:26:15;8.50;92.30
25871;DHT22;13689;48.590;7.752;2022-11-14T05:28:41;8.40;92.20
25871;DHT22;13689;48.590;7.752;2022-11-14T05:31:08;8.40;92.30
25871;DHT22;13689;48.590;7.752;2022-11-14T05:33:34;8.40;92.40
25871;DHT22;13689;48.590;7.752;2022-11-14T05:38:28;8.40;92.50
25871;DHT22;13689;48.590;7.752;2022-11-14T05:40:54;8.40;92.30
25871;DHT22;13689;48.590;7.752;2022-11-14T05:43:20;8.30;92.30
25871;DHT22;13689;48.590;7.752;2022-11-14T05:45:45;8.20;92.40
25871;DHT22;13689;48.590;7.752;2022-11-14T05:48:11;8.20;92.50
25871;DHT22;13689;48.590;7.752;2022-11-14T05:50:37;8.20;92.50
25871;DHT22;13689;48.590;7.752;2022-11-14T05:53:02;8.20;92.50
25871;DHT22;13689;48.590;7.752;2022-11-14T05:55:28;8.20;92.40
25871;DHT22;13689;48.590;7.752;2022-11-14T05:57:56;8.10;92.30
25871;DHT22;13689;48.590;7.752;2022-11-14T06:00:22;8.00;92.60
25871;DHT22;13689;48.590;7.752;2022-11-14T06:02:50;8.10;92.90
25871;DHT22;13689;48.590;7.752;2022-11-14T06:05:16;8.10;92.80
25871;DHT22;13689;48.590;7.752;2022-11-14T06:07:41;8.10;92.70
25871;DHT22;13689;48.590;7.752;2022-11-14T06:10:07;8.00;92.70
25871;DHT22;13689;48.590;7.752;2022-11-14T06:12:32;8.00;92.80
25871;DHT22;13689;48.590;7.752;2022-11-14T06:14:58;8.00;92.70
25871;DHT22;13689;48.590;7.752;2022-11-14T06:17:23;8.00;93.00
25871;DHT22;13689;48.590;7.752;2022-11-14T06:19:49;8.10;93.10
25871;DHT22;13689;48.590;7.752;2022-11-14T06:22:14;8.10;93.00
25871;DHT22;13689;48.590;7.752;2022-11-14T06:24:39;8.20;93.10
25871;DHT22;13689;48.590;7.752;2022-11-14T06:27:05;8.20;93.00
25871;DHT22;13689;48.590;7.752;2022-11-14T06:29:30;8.20;92.90
25871;DHT22;13689;48.590;7.752;2022-11-14T06:31:56;8.30;92.90
25871;DHT22;13689;48.590;7.752;2022-11-14T06:34:21;8.30;92.90
25871;DHT22;13689;48.590;7.752;2022-11-14T06:36:47;8.30;92.90
25871;DHT22;13689;48.590;7.752;2022-11-14T06:39:12;8.30;92.90
25871;DHT22;13689;48.590;7.752;2022-11-14T06:41:38;8.30;92.80
25871;DHT22;13689;48.590;7.752;2022-11-14T06:44:06;8.30;92.80
25871;DHT22;13689;48.590;7.752;2022-11-14T06:46:31;8.30;92.80
25871;DHT22;13689;48.590;7.752;2022-11-14T06:48:57;8.30;92.80
25871;DHT22;13689;48.590;7.752;2022-11-14T06:51:22;8.30;92.90
25871;DHT22;13689;48.590;7.752;2022-11-14T06:53:48;8.40;92.90
25871;DHT22;13689;48.590;7.752;2022-11-14T06:56:14;8.40;92.90
25871;DHT22;13689;48.590;7.752;2022-11-14T06:58:44;8.40;92.80
25871;DHT22;13689;48.590;7.752;2022-11-14T07:01:14;8.40;92.80
25871;DHT22;13689;48.590;7.752;2022-11-14T07:03:40;8.40;92.80
25871;DHT22;13689;48.590;7.752;2022-11-14T07:06:06;8.40;92.80
25871;DHT22;13689;48.590;7.752;2022-11-14T07:08:32;8.40;92.70
25871;DHT22;13689;48.590;7.752;2022-11-14T07:11:08;8.40;92.70
25871;DHT22;13689;48.590;7.752;2022-11-14T07:13:34;8.40;92.70
25871;DHT22;13689;48.590;7.752;2022-11-14T07:16:01;8.40;92.60
25871;DHT22;13689;48.590;7.752;2022-11-14T07:18:30;8.40;92.60
25871;DHT22;13689;48.590;7.752;2022-11-14T07:20:57;8.40;93.10
25871;DHT22;13689;48.590;7.752;2022-11-14T07:23:22;8.40;92.70
25871;DHT22;13689;48.590;7.752;2022-11-14T07:25:48;8.50;92.80
25871;DHT22;13689;48.590;7.752;2022-11-14T07:28:13;8.50;92.70
25871;DHT22;13689;48.590;7.752;2022-11-14T07:30:40;8.50;92.70
25871;DHT22;13689;48.590;7.752;2022-11-14T07:33:05;8.50;92.70
25871;DHT22;13689;48.590;7.752;2022-11-14T07:35:31;8.50;92.70
25871;DHT22;13689;48.590;7.752;2022-11-14T07:38:03;8.60;92.60
25871;DHT22;13689;48.590;7.752;2022-11-14T07:40:28;8.60;92.60
25871;DHT22;13689;48.590;7.752;2022-11-14T07:42:57;8.60;92.60
25871;DHT22;13689;48.590;7.752;2022-11-14T07:45:24;8.60;92.40
25871;DHT22;13689;48.590;7.752;2022-11-14T07:47:52;8.60;92.50
25871;DHT22;13689;48.590;7.752;2022-11-14T07:50:18;8.50;92.40
25871;DHT22;13689;48.590;7.752;2022-11-14T07:52:48;8.50;92.60
25871;DHT22;13689;48.590;7.752;2022-11-14T07:55:14;8.50;92.50
25871;DHT22;13689;48.590;7.752;2022-11-14T07:57:40;8.60;92.50
25871;DHT22;13689;48.590;7.752;2022-11-14T08:00:05;8.60;92.60
25871;DHT22;13689;48.590;7.752;2022-11-14T08:02:31;8.60;92.50
25871;DHT22;13689;48.590;7.752;2022-11-14T08:04:57;8.60;92.40
25871;DHT22;13689;48.590;7.752;2022-11-14T08:07:22;8.50;92.30
25871;DHT22;13689;48.590;7.752;2022-11-14T08:09:48;8.50;92.40
25871;DHT22;13689;48.590;7.752;2022-11-14T08:12:13;8.50;92.30
25871;DHT22;13689;48.590;7.752;2022-11-14T08:14:39;8.50;92.30
25871;DHT22;13689;48.590;7.752;2022-11-14T08:17:04;8.50;92.40
25871;DHT22;13689;48.590;7.752;2022-11-14T08:19:30;8.50;92.40
25871;DHT22;13689;48.590;7.752;2022-11-14T08:21:55;8.60;92.50
25871;DHT22;13689;48.590;7.752;2022-11-14T08:24:21;8.50;92.40
25871;DHT22;13689;48.590;7.752;2022-11-14T08:26:46;8.60;92.40
25871;DHT22;13689;48.590;7.752;2022-11-14T08:29:12;8.70;92.40
25871;DHT22;13689;48.590;7.752;2022-11-14T08:31:37;8.60;92.30
25871;DHT22;13689;48.590;7.752;2022-11-14T08:34:03;8.70;92.40
25871;DHT22;13689;48.590;7.752;2022-11-14T08:36:28;8.70;92.40
25871;DHT22;13689;48.590;7.752;2022-11-14T08:38:54;8.70;92.30
25871;DHT22;13689;48.590;7.752;2022-11-14T08:41:19;8.80;92.30
25871;DHT22;13689;48.590;7.752;2022-11-14T08:43:45;8.90;92.30
25871;DHT22;13689;48.590;7.752;2022-11-14T08:46:10;8.90;92.30
25871;DHT22;13689;48.590;7.752;2022-11-14T08:48:36;9.00;92.20
25871;DHT22;13689;48.590;7.752;2022-11-14T08:51:02;9.00;92.10
25871;DHT22;13689;48.590;7.752;2022-11-14T08:53:28;9.00;91.80
25871;DHT22;13689;48.590;7.752;2022-11-14T08:55:55;8.90;91.70
25871;DHT22;13689;48.590;7.752;2022-11-14T08:58:20;8.90;92.00
25871;DHT22;13689;48.590;7.752;2022-11-14T09:00:46;8.90;92.20
25871;DHT22;13689;48.590;7.752;2022-11-14T09:03:11;8.90;92.10
25871;DHT22;13689;48.590;7.752;2022-11-14T09:05:40;9.00;92.00
25871;DHT22;13689;48.590;7.752;2022-11-14T09:08:06;8.90;92.00
25871;DHT22;13689;48.590;7.752;2022-11-14T09:10:32;9.00;92.10
25871;DHT22;13689;48.590;7.752;2022-11-14T09:12:58;8.90;92.00
25871;DHT22;13689;48.590;7.752;2022-11-14T09:15:25;9.00;92.00
25871;DHT22;13689;48.590;7.752;2022-11-14T09:17:51;8.90;91.90
25871;DHT22;13689;48.590;7.752;2022-11-14T09:20:17;8.90;92.00
25871;DHT22;13689;48.590;7.752;2022-11-14T09:22:44;9.00;92.10
25871;DHT22;13689;48.590;7.752;2022-11-14T09:25:09;9.00;92.10
25871;DHT22;13689;48.590;7.752;2022-11-14T09:27:35;9.00;91.90
25871;DHT22;13689;48.590;7.752;2022-11-14T09:30:00;9.00;91.80
25871;DHT22;13689;48.590;7.752;2022-11-14T09:32:25;9.00;91.80
25871;DHT22;13689;48.590;7.752;2022-11-14T09:34:51;9.00;92.00
25871;DHT22;13689;48.590;7.752;2022-11-14T09:37:17;8.90;91.70
25871;DHT22;13689;48.590;7.752;2022-11-14T09:39:42;8.80;91.80
25871;DHT22;13689;48.590;7.752;2022-11-14T09:47:22;8.90;92.10
25871;DHT22;13689;48.590;7.752;2022-11-14T09:49:49;8.90;91.90
25871;DHT22;13689;48.590;7.752;2022-11-14T09:52:35;8.90;92.00
25871;DHT22;13689;48.590;7.752;2022-11-14T09:55:03;8.90;92.00
25871;DHT22;13689;48.590;7.752;2022-11-14T09:57:33;9.00;91.90
25871;DHT22;13689;48.590;7.752;2022-11-14T09:59:59;9.00;91.90
25871;DHT22;13689;48.590;7.752;2022-11-14T10:15:41;9.10;91.70
25871;DHT22;13689;48.590;7.752;2022-11-14T10:20:43;9.20;91.80
25871;DHT22;13689;48.590;7.752;2022-11-14T10:25:47;9.40;91.90
25871;DHT22;13689;48.590;7.752;2022-11-14T10:31:07;9.50;91.60
25871;DHT22;13689;48.590;7.752;2022-11-14T10:33:48;9.50;91.50
25871;DHT22;13689;48.590;7.752;2022-11-14T10:38:49;9.60;91.60
25871;DHT22;13689;48.590;7.752;2022-11-14T10:41:16;9.60;91.50
25871;DHT22;13689;48.590;7.752;2022-11-14T10:43:43;9.60;91.50
25871;DHT22;13689;48.590;7.752;2022-11-14T10:46:16;9.70;91.50
25871;DHT22;13689;48.590;7.752;2022-11-14T10:48:44;9.70;91.40
25871;DHT22;13689;48.590;7.752;2022-11-14T10:56:11;9.70;91.40
25871;DHT22;13689;48.590;7.752;2022-11-14T10:58:37;9.60;91.40
25871;DHT22;13689;48.590;7.752;2022-11-14T11:03:47;9.60;91.40
25871;DHT22;13689;48.590;7.752;2022-11-14T11:06:25;9.70;91.50
25871;DHT22;13689;48.590;7.752;2022-11-14T11:08:51;9.70;91.40
25871;DHT22;13689;48.590;7.752;2022-11-14T11:11:37;9.80;91.40
25871;DHT22;13689;48.590;7.752;2022-11-14T11:14:03;9.90;91.30
25871;DHT22;13689;48.590;7.752;2022-11-14T11:16:29;10.00;91.20
25871;DHT22;13689;48.590;7.752;2022-11-14T11:19:12;10.10;91.20
25871;DHT22;13689;48.590;7.752;2022-11-14T11:21:45;10.10;91.10
25871;DHT22;13689;48.590;7.752;2022-11-14T11:24:11;10.20;91.10
25871;DHT22;13689;48.590;7.752;2022-11-14T11:26:42;10.30;90.90
25871;DHT22;13689;48.590;7.752;2022-11-14T11:29:32;10.40;90.90
25871;DHT22;13689;48.590;7.752;2022-11-14T11:31:57;10.40;90.90
25871;DHT22;13689;48.590;7.752;2022-11-14T11:34:27;10.40;90.90
25871;DHT22;13689;48.590;7.752;2022-11-14T11:37:01;10.40;90.80
25871;DHT22;13689;48.590;7.752;2022-11-14T11:39:32;10.30;90.90
25871;DHT22;13689;48.590;7.752;2022-11-14T11:42:00;10.30;91.00
25871;DHT22;13689;48.590;7.752;2022-11-14T11:44:36;10.30;90.90
25871;DHT22;13689;48.590;7.752;2022-11-14T11:47:07;10.40;91.00
25871;DHT22;13689;48.590;7.752;2022-11-14T11:49:36;10.40;91.00
25871;DHT22;13689;48.590;7.752;2022-11-14T11:52:05;10.40;90.90
25871;DHT22;13689;48.590;7.752;2022-11-14T11:54:43;10.40;90.90
25871;DHT22;13689;48.590;7.752;2022-11-14T11:57:14;10.40;90.90
25871;DHT22;13689;48.590;7.752;2022-11-14T11:59:45;10.40;90.90
25871;DHT22;13689;48.590;7.752;2022-11-14T12:02:22;10.40;90.90
25871;DHT22;13689;48.590;7.752;2022-11-14T12:04:48;10.50;90.90
25871;DHT22;13689;48.590;7.752;2022-11-14T12:07:18;10.50;90.90
25871;DHT22;13689;48.590;7.752;2022-11-14T12:09:45;10.50;90.80
25871;DHT22;13689;48.590;7.752;2022-11-14T12:12:13;10.60;90.80
25871;DHT22;13689;48.590;7.752;2022-11-14T12:14:51;10.60;90.80
25871;DHT22;13689;48.590;7.752;2022-11-14T12:20:01;10.70;90.70
25871;DHT22;13689;48.590;7.752;2022-11-14T12:22:33;10.70;90.60
25871;DHT22;13689;48.590;7.752;2022-11-14T12:25:15;10.80;90.70
25871;DHT22;13689;48.590;7.752;2022-11-14T12:28:04;10.90;90.70
25871;DHT22;13689;48.590;7.752;2022-11-14T12:30:34;10.90;90.60
25871;DHT22;13689;48.590;7.752;2022-11-14T12:33:06;11.00;90.60
25871;DHT22;13689;48.590;7.752;2022-11-14T12:35:33;11.10;90.50
25871;DHT22;13689;48.590;7.752;2022-11-14T12:37:59;11.10;90.40
25871;DHT22;13689;48.590;7.752;2022-11-14T12:40:27;11.10;90.80
25871;DHT22;13689;48.590;7.752;2022-11-14T12:42:54;11.20;90.40
25871;DHT22;13689;48.590;7.752;2022-11-14T12:50:53;11.30;90.30
25871;DHT22;13689;48.590;7.752;2022-11-14T12:56:18;11.30;90.40
25871;DHT22;13689;48.590;7.752;2022-11-14T12:58:49;11.30;90.30
25871;DHT22;13689;48.590;7.752;2022-11-14T13:11:45;11.40;90.20
25871;DHT22;13689;48.590;7.752;2022-11-14T13:14:30;11.40;90.30
25871;DHT22;13689;48.590;7.752;2022-11-14T13:19:58;11.40;90.30
25871;DHT22;13689;48.590;7.752;2022-11-14T13:22:43;11.40;90.30
25871;DHT22;13689;48.590;7.752;2022-11-14T13:27:35;11.50;90.30
25871;DHT22;13689;48.590;7.752;2022-11-14T13:30:04;11.50;90.30
25871;DHT22;13689;48.590;7.752;2022-11-14T13:37:53;11.60;90.30
25871;DHT22;13689;48.590;7.752;2022-11-14T13:45:47;11.50;90.40
25871;DHT22;13689;48.590;7.752;2022-11-14T13:51:00;11.60;90.50
25871;DHT22;13689;48.590;7.752;2022-11-14T13:53:28;11.70;90.40
25871;DHT22;13689;48.590;7.752;2022-11-14T13:56:18;11.80;90.40
25871;DHT22;13689;48.590;7.752;2022-11-14T13:58:55;11.90;90.30
25871;DHT22;13689;48.590;7.752;2022-11-14T14:06:25;12.00;90.10
25871;DHT22;13689;48.590;7.752;2022-11-14T14:14:09;12.00;90.20
25871;DHT22;13689;48.590;7.752;2022-11-14T14:24:01;11.80;90.30
25871;DHT22;13689;48.590;7.752;2022-11-14T14:26:43;11.80;90.30
25871;DHT22;13689;48.590;7.752;2022-11-14T14:31:38;11.80;90.40
25871;DHT22;13689;48.590;7.752;2022-11-14T14:34:24;11.80;90.50
25871;DHT22;13689;48.590;7.752;2022-11-14T14:36:52;11.70;90.40
25871;DHT22;13689;48.590;7.752;2022-11-14T14:39:22;11.70;90.50
25871;DHT22;13689;48.590;7.752;2022-11-14T14:41:49;11.60;90.50
25871;DHT22;13689;48.590;7.752;2022-11-14T14:44:17;11.60;90.50
25871;DHT22;13689;48.590;7.752;2022-11-14T14:46:43;11.60;90.60
25871;DHT22;13689;48.590;7.752;2022-11-14T14:49:08;11.60;90.60
25871;DHT22;13689;48.590;7.752;2022-11-14T14:51:34;11.60;91.00
25871;DHT22;13689;48.590;7.752;2022-11-14T14:54:00;11.60;90.70
25871;DHT22;13689;48.590;7.752;2022-11-14T14:56:26;11.70;90.70
25871;DHT22;13689;48.590;7.752;2022-11-14T14:58:53;11.70;90.70
25871;DHT22;13689;48.590;7.752;2022-11-14T15:01:22;11.70;90.60
25871;DHT22;13689;48.590;7.752;2022-11-14T15:03:51;11.80;90.60
25871;DHT22;13689;48.590;7.752;2022-11-14T15:06:20;11.70;90.50
25871;DHT22;13689;48.590;7.752;2022-11-14T15:08:54;11.70;90.60
25871;DHT22;13689;48.590;7.752;2022-11-14T15:11:20;11.60;90.60
25871;DHT22;13689;48.590;7.752;2022-11-14T15:13:46;11.60;90.60
25871;DHT22;13689;48.590;7.752;2022-11-14T15:16:14;11.50;90.50
25871;DHT22;13689;48.590;7.752;2022-11-14T15:18:40;11.50;90.80
25871;DHT22;13689;48.590;7.752;2022-11-14T15:24:02;11.50;90.90
25871;DHT22;13689;48.590;7.752;2022-11-14T15:26:28;11.50;90.90
25871;DHT22;13689;48.590;7.752;2022-11-14T15:31:56;11.50;91.10
25871;DHT22;13689;48.590;7.752;2022-11-14T15:34:29;11.60;90.80
25871;DHT22;13689;48.590;7.752;2022-11-14T15:39:40;11.50;90.80
25871;DHT22;13689;48.590;7.752;2022-11-14T15:44:39;11.50;90.90
25871;DHT22;13689;48.590;7.752;2022-11-14T15:47:16;11.50;90.90
25871;DHT22;13689;48.590;7.752;2022-11-14T15:49:50;11.60;91.00
25871;DHT22;13689;48.590;7.752;2022-11-14T15:52:21;11.60;91.00
25871;DHT22;13689;48.590;7.752;2022-11-14T15:54:47;11.60;90.90
25871;DHT22;13689;48.590;7.752;2022-11-14T15:57:13;11.70;90.90
25871;DHT22;13689;48.590;7.752;2022-11-14T15:59:39;11.70;90.90
25871;DHT22;13689;48.590;7.752;2022-11-14T16:04:36;11.70;90.80
25871;DHT22;13689;48.590;7.752;2022-11-14T16:07:03;11.80;90.80
25871;DHT22;13689;48.590;7.752;2022-11-14T16:09:28;11.80;90.80
25871;DHT22;13689;48.590;7.752;2022-11-14T16:11:54;11.70;90.70
25871;DHT22;13689;48.590;7.752;2022-11-14T16:14:19;11.70;90.80
25871;DHT22;13689;48.590;7.752;2022-11-14T16:16:45;11.70;90.90
25871;DHT22;13689;48.590;7.752;2022-11-14T16:19:12;11.60;90.90
25871;DHT22;13689;48.590;7.752;2022-11-14T16:21:38;11.60;91.00
25871;DHT22;13689;48.590;7.752;2022-11-14T16:24:04;11.60;91.10
25871;DHT22;13689;48.590;7.752;2022-11-14T16:26:30;11.60;91.20
25871;DHT22;13689;48.590;7.752;2022-11-14T16:28:55;11.60;91.20
25871;DHT22;13689;48.590;7.752;2022-11-14T16:31:21;11.60;91.30
25871;DHT22;13689;48.590;7.752;2022-11-14T16:33:47;11.60;91.30
25871;DHT22;13689;48.590;7.752;2022-11-14T16:36:12;11.60;91.40
25871;DHT22;13689;48.590;7.752;2022-11-14T16:38:38;11.50;91.40
25871;DHT22;13689;48.590;7.752;2022-11-14T16:41:05;11.60;91.50
25871;DHT22;13689;48.590;7.752;2022-11-14T16:43:30;11.60;91.50
25871;DHT22;13689;48.590;7.752;2022-11-14T16:45:56;11.60;91.50
25871;DHT22;13689;48.590;7.752;2022-11-14T16:48:22;11.50;91.60
25871;DHT22;13689;48.590;7.752;2022-11-14T16:50:47;11.50;91.60
25871;DHT22;13689;48.590;7.752;2022-11-14T16:53:12;11.50;91.60
25871;DHT22;13689;48.590;7.752;2022-11-14T16:55:42;11.50;91.70
25871;DHT22;13689;48.590;7.752;2022-11-14T16:58:08;11.50;91.70
25871;DHT22;13689;48.590;7.752;2022-11-14T17:00:33;11.50;91.70
25871;DHT22;13689;48.590;7.752;2022-11-14T17:03:00;11.50;91.80
25871;DHT22;13689;48.590;7.752;2022-11-14T17:05:25;11.50;91.80
25871;DHT22;13689;48.590;7.752;2022-11-14T17:07:51;11.50;91.90
25871;DHT22;13689;48.590;7.752;2022-11-14T17:10:16;11.50;91.90
25871;DHT22;13689;48.590;7.752;2022-11-14T17:12:42;11.50;91.90
25871;DHT22;13689;48.590;7.752;2022-11-14T17:15:07;11.50;91.90
25871;DHT22;13689;48.590;7.752;2022-11-14T17:17:33;11.50;92.00
25871;DHT22;13689;48.590;7.752;2022-11-14T17:19:58;11.60;92.00
25871;DHT22;13689;48.590;7.752;2022-11-14T17:22:24;11.50;91.90
25871;DHT22;13689;48.590;7.752;2022-11-14T17:24:49;11.60;92.00
25871;DHT22;13689;48.590;7.752;2022-11-14T17:27:15;11.50;92.00
25871;DHT22;13689;48.590;7.752;2022-11-14T17:29:40;11.50;92.00
25871;DHT22;13689;48.590;7.752;2022-11-14T17:32:06;11.50;92.10